Time;durP1;ratioP1;P1;durP2;ratioP2;P2;SDS_P1;SDS_P2;PMS_P1;PMS_P2;Temp;Humidity;BMP_temperature;BMP_pressure;BME280_temperature;BME280_humidity;BME280_pressure;Samples;Min_cycle;Max_cycle;Signal;HPM_P1;HPM_P2
2022/06/14 00:00:54;;;;;;;;;;;12.00;99.90;;;;;;5047677;28;20049;-69
2022/06/14 00:03:35;;;;;;;12.80;3.28;;;12.00;99.90;;;;;;5040279;28;20355;-69
2022/06/14 00:06:05;;;;;;;15.27;3.53;;;12.00;99.90;;;;;;5038427;28;20102;-69
2022/06/14 00:08:31;;;;;;;18.38;3.72;;;12.00;99.90;;;;;;5042941;28;20094;-69
2022/06/14 00:10:59;;;;;;;15.63;3.75;;;12.10;99.90;;;;;;5045607;28;20049;-69
2022/06/14 00:13:26;;;;;;;14.48;3.63;;;12.10;99.90;;;;;;5045790;28;20045;-69
2022/06/14 00:15:52;;;;;;;17.08;3.63;;;12.10;99.90;;;;;;5040240;28;20037;-69
2022/06/14 00:18:18;;;;;;;10.60;3.20;;;12.20;99.90;;;;;;5049208;28;20098;-69
2022/06/14 00:20:46;;;;;;;16.08;3.65;;;12.20;99.90;;;;;;5043807;28;20135;-69
2022/06/14 00:23:12;;;;;;;;;;;12.20;99.90;;;;;;5039799;28;20033;-69
2022/06/14 00:25:42;;;;;;;13.73;3.55;;;12.20;99.90;;;;;;5031558;28;19948;-69
2022/06/14 00:28:10;;;;;;;14.50;3.20;;;12.20;99.90;;;;;;5030119;28;20043;-69
2022/06/14 00:30:36;;;;;;;20.35;4.25;;;12.30;99.90;;;;;;5046445;28;20487;-70
2022/06/14 00:33:03;;;;;;;17.25;3.65;;;12.30;99.90;;;;;;5041923;28;20130;-69
2022/06/14 00:35:29;;;;;;;13.65;3.53;;;12.30;99.90;;;;;;5042695;28;20041;-69
2022/06/14 00:37:55;;;;;;;14.95;4.13;;;12.30;99.90;;;;;;5029134;28;20083;-69
2022/06/14 00:40:26;;;;;;;14.35;4.05;;;12.30;99.90;;;;;;5031343;28;20129;-69
2022/06/14 00:42:52;;;;;;;11.75;3.30;;;12.30;99.90;;;;;;5036410;28;20414;-69
2022/06/14 00:45:18;;;;;;;14.07;4.03;;;12.30;99.90;;;;;;5035710;28;20752;-69
2022/06/14 00:47:48;;;;;;;19.63;4.05;;;12.40;99.90;;;;;;5032407;28;20100;-69
2022/06/14 00:50:19;;;;;;;13.27;3.78;;;12.40;99.90;;;;;;5039564;28;20045;-69
2022/06/14 00:52:53;;;;;;;14.52;3.75;;;12.40;99.90;;;;;;5041058;28;20439;-69
2022/06/14 00:55:33;;;;;;;14.95;3.97;;;12.40;99.90;;;;;;5031605;28;20127;-68
2022/06/14 00:58:06;;;;;;;15.05;3.72;;;12.40;99.90;;;;;;5028310;28;20124;-69
2022/06/14 01:00:58;;;;;;;10.10;3.45;;;12.40;99.90;;;;;;5043135;28;20423;-69
2022/06/14 01:03:28;;;;;;;14.93;4.05;;;12.40;99.90;;;;;;5038177;28;20069;-69
2022/06/14 01:06:07;;;;;;;12.57;3.78;;;12.30;99.90;;;;;;5042993;28;20045;-69
2022/06/14 01:08:45;;;;;;;13.25;3.88;;;12.30;99.90;;;;;;5036264;28;20560;-69
2022/06/14 01:11:18;;;;;;;13.13;3.35;;;12.30;99.90;;;;;;5039318;28;20085;-70
2022/06/14 01:13:44;;;;;;;14.35;3.72;;;12.20;99.90;;;;;;5054461;28;20079;-69
2022/06/14 01:16:11;;;;;;;16.15;3.47;;;12.20;99.90;;;;;;5037570;28;20037;-70
2022/06/14 01:18:38;;;;;;;11.52;3.38;;;12.20;99.90;;;;;;5036765;28;20131;-68
2022/06/14 01:21:04;;;;;;;11.85;4.07;;;12.10;99.90;;;;;;5036833;28;20041;-68
2022/06/14 01:23:30;;;;;;;13.10;3.40;;;12.10;99.90;;;;;;5035377;28;20418;-68
2022/06/14 01:26:12;;;;;;;19.73;4.07;;;12.00;99.90;;;;;;5040437;28;20180;-69
2022/06/14 01:28:41;;;;;;;13.32;3.25;;;12.00;99.90;;;;;;5042503;28;20052;-70
2022/06/14 01:31:08;;;;;;;15.05;3.30;;;11.90;99.90;;;;;;5031647;28;20468;-69
2022/06/14 01:33:45;;;;;;;11.65;3.20;;;11.90;99.90;;;;;;5040506;28;20048;-68
2022/06/14 01:36:41;;;;;;;11.90;3.67;;;11.90;99.90;;;;;;5024969;28;20080;-70
2022/06/14 01:39:11;;;;;;;13.52;3.20;;;11.90;99.90;;;;;;5021668;28;20095;-70
2022/06/14 01:42:01;;;;;;;12.95;3.15;;;11.80;99.90;;;;;;5033077;28;20411;-70
2022/06/14 01:44:42;;;;;;;12.25;3.28;;;11.80;99.90;;;;;;5038685;28;20087;-69
2022/06/14 01:47:31;;;;;;;8.25;2.95;;;11.80;99.90;;;;;;5039932;28;20099;-70
2022/06/14 01:53:10;;;;;;;15.38;3.80;;;11.70;99.90;;;;;;5036522;28;20187;-70
2022/06/14 01:55:43;;;;;;;12.63;3.75;;;11.70;99.90;;;;;;5036884;28;20399;-70
2022/06/14 01:58:19;;;;;;;13.40;3.15;;;11.60;99.90;;;;;;5039679;28;20052;-69
2022/06/14 02:01:26;;;;;;;15.15;3.53;;;11.60;99.90;;;;;;5038545;28;20045;-70
2022/06/14 02:04:38;;;;;;;11.93;3.13;;;11.60;99.90;;;;;;5042903;28;20048;-69
2022/06/14 02:07:09;;;;;;;18.67;3.92;;;11.60;99.90;;;;;;5049532;28;20491;-70
2022/06/14 02:10:11;;;;;;;15.57;3.88;;;11.50;99.90;;;;;;5056317;28;20057;-70
2022/06/14 02:13:06;;;;;;;12.68;3.30;;;11.50;99.90;;;;;;5049578;28;20049;-70
2022/06/14 02:15:39;;;;;;;12.48;3.63;;;11.50;99.90;;;;;;5038512;28;20056;-70
2022/06/14 02:18:28;;;;;;;13.18;3.60;;;11.50;99.90;;;;;;5032685;28;20162;-69
2022/06/14 02:21:00;;;;;;;;;;;11.40;99.90;;;;;;5055236;28;20120;-69
2022/06/14 02:23:30;;;;;;;8.73;3.40;;;11.40;99.90;;;;;;5027389;28;20036;-69
2022/06/14 02:26:05;;;;;;;19.10;4.25;;;11.40;99.90;;;;;;5041639;28;20045;-69
2022/06/14 02:28:46;;;;;;;12.98;3.28;;;11.40;99.90;;;;;;5030593;28;20045;-69
2022/06/14 02:31:25;;;;;;;12.77;3.75;;;11.30;99.90;;;;;;5030876;28;20119;-69
2022/06/14 02:34:06;;;;;;;11.98;3.65;;;11.30;99.90;;;;;;5030737;28;20049;-69
2022/06/14 02:36:51;;;;;;;12.35;3.75;;;11.30;99.90;;;;;;5032183;28;20403;-69
2022/06/14 02:39:46;;;;;;;10.48;3.60;;;11.30;99.90;;;;;;5043358;28;20048;-70
2022/06/14 02:42:22;;;;;;;19.40;4.07;;;11.20;99.90;;;;;;5024655;28;20558;-69
2022/06/14 02:45:02;;;;;;;13.38;3.78;;;11.20;99.90;;;;;;5027964;28;20066;-69
2022/06/14 02:47:52;;;;;;;11.10;3.40;;;11.20;99.90;;;;;;5026405;28;20118;-69
2022/06/14 02:50:42;;;;;;;12.40;4.10;;;11.20;99.90;;;;;;5033161;28;20127;-69
2022/06/14 02:53:11;;;;;;;15.65;3.58;;;11.20;99.90;;;;;;5034268;28;20083;-69
2022/06/14 02:56:05;;;;;;;14.32;3.65;;;11.20;99.90;;;;;;5039744;28;20041;-70
2022/06/14 02:58:38;;;;;;;15.15;3.85;;;11.20;99.90;;;;;;5044990;28;20063;-69
2022/06/14 03:01:14;;;;;;;12.40;3.45;;;11.20;99.90;;;;;;5045258;28;20480;-69
2022/06/14 03:04:15;;;;;;;11.95;3.50;;;11.10;99.90;;;;;;5042901;28;20045;-69
2022/06/14 03:07:09;;;;;;;16.77;3.95;;;11.20;99.90;;;;;;5028697;28;20107;-69
2022/06/14 03:09:36;;;;;;;11.50;3.55;;;11.10;99.90;;;;;;5037612;28;20076;-69
2022/06/14 03:12:14;;;;;;;19.48;4.40;;;11.10;99.90;;;;;;5032366;28;20107;-70
2022/06/14 03:15:02;;;;;;;23.20;4.68;;;11.10;99.90;;;;;;5041848;28;20060;-69
2022/06/14 03:17:54;;;;;;;11.88;3.67;;;11.10;99.90;;;;;;5036274;28;20080;-69
2022/06/14 03:20:32;;;;;;;14.40;4.00;;;11.20;99.90;;;;;;5052141;28;20506;-69
2022/06/14 03:23:19;;;;;;;15.18;4.45;;;11.20;99.90;;;;;;5037688;28;20053;-70
2022/06/14 03:25:56;;;;;;;16.35;4.18;;;11.20;99.90;;;;;;5036557;28;20057;-70
2022/06/14 03:28:36;;;;;;;18.10;4.78;;;11.20;99.90;;;;;;5039972;28;20052;-69
2022/06/14 03:31:21;;;;;;;13.20;4.18;;;11.20;99.90;;;;;;5046954;28;20052;-69
2022/06/14 03:33:56;;;;;;;10.13;3.53;;;11.20;99.90;;;;;;5040452;28;20057;-68
2022/06/14 03:36:22;;;;;;;18.10;4.47;;;11.30;99.90;;;;;;5045635;28;20049;-69
2022/06/14 03:39:11;;;;;;;10.43;3.47;;;11.20;99.90;;;;;;5045824;28;20052;-69
2022/06/14 03:41:39;;;;;;;;;;;11.20;99.90;;;;;;5033075;28;20055;-70
2022/06/14 03:44:05;;;;;;;12.63;3.85;;;11.20;99.90;;;;;;5043391;28;19929;-69
2022/06/14 03:46:36;;;;;;;12.18;3.75;;;11.30;99.90;;;;;;5028392;28;20053;-69
2022/06/14 03:49:23;;;;;;;13.68;3.65;;;11.20;99.90;;;;;;5046070;28;20076;-69
2022/06/14 03:51:57;;;;;;;8.98;3.47;;;11.20;99.90;;;;;;5041776;28;20171;-69
2022/06/14 03:54:45;;;;;;;11.38;3.35;;;11.20;99.90;;;;;;5044630;28;20048;-69
2022/06/14 03:57:40;;;;;;;9.65;3.67;;;11.20;99.90;;;;;;5043544;28;20078;-69
2022/06/14 04:00:10;;;;;;;17.20;4.57;;;11.20;99.90;;;;;;5038002;28;20049;-69
2022/06/14 04:02:55;;;;;;;14.48;4.60;;;11.20;99.90;;;;;;5043672;28;20078;-69
2022/06/14 04:05:32;;;;;;;14.52;4.78;;;11.20;99.90;;;;;;5039475;28;20411;-69
2022/06/14 04:08:16;;;;;;;16.33;4.82;;;11.20;99.90;;;;;;5040108;28;20058;-69
2022/06/14 04:10:44;;;;;;;14.35;4.20;;;11.30;99.90;;;;;;5032028;28;20203;-69
2022/06/14 04:13:45;;;;;;;11.15;3.70;;;11.30;99.90;;;;;;5045875;28;20045;-69
2022/06/14 04:16:10;;;;;;;12.05;3.55;;;11.40;99.90;;;;;;5031581;28;20079;-69
2022/06/14 04:18:50;;;;;;;10.68;4.30;;;11.40;99.90;;;;;;5039337;28;20175;-70
2022/06/14 04:21:35;;;;;;;17.73;4.15;;;11.40;99.90;;;;;;5042314;28;20041;-70
2022/06/14 04:24:13;;;;;;;8.88;3.10;;;11.40;99.90;;;;;;5035298;28;20044;-70
2022/06/14 04:26:57;;;;;;;17.55;4.43;;;11.50;99.90;;;;;;5036468;28;20134;-70
2022/06/14 04:29:38;;;;;;;12.32;4.30;;;11.50;99.90;;;;;;5029172;28;20103;-69
2022/06/14 04:32:16;;;;;;;13.82;4.50;;;11.60;99.90;;;;;;5038027;28;20503;-69
2022/06/14 04:34:50;;;;;;;16.02;4.25;;;11.60;99.90;;;;;;5040935;28;20049;-69
2022/06/14 04:37:16;;;;;;;12.00;3.95;;;11.60;99.90;;;;;;5017422;28;20152;-70
2022/06/14 04:39:58;;;;;;;13.13;3.78;;;11.70;99.90;;;;;;5043681;28;20168;-70
2022/06/14 04:42:39;;;;;;;12.75;4.50;;;11.70;99.90;;;;;;5037893;28;20045;-69
2022/06/14 04:45:31;;;;;;;15.27;3.70;;;11.80;99.90;;;;;;5033849;28;20053;-70
2022/06/14 04:48:16;;;;;;;11.50;4.13;;;11.80;99.90;;;;;;5040141;28;20056;-70
2022/06/14 04:50:47;;;;;;;13.75;4.00;;;11.80;99.90;;;;;;5025020;28;20053;-69
2022/06/14 04:53:49;;;;;;;16.58;4.60;;;11.90;99.90;;;;;;5034640;28;20044;-69
2022/06/14 04:56:23;;;;;;;14.93;4.10;;;11.90;99.90;;;;;;5032177;28;20037;-69
2022/06/14 04:59:07;;;;;;;16.98;4.20;;;12.00;99.90;;;;;;5021005;28;20338;-70
2022/06/14 05:01:42;;;;;;;10.82;3.50;;;12.00;99.90;;;;;;5029365;28;20061;-69
2022/06/14 05:04:24;;;;;;;12.48;4.10;;;12.00;99.90;;;;;;5037096;28;20038;-70
2022/06/14 05:06:56;;;;;;;15.65;5.28;;;12.10;99.90;;;;;;5033584;28;20048;-70
2022/06/14 05:09:55;;;;;;;16.88;4.47;;;12.10;99.90;;;;;;5040652;28;20052;-70
2022/06/14 05:12:28;;;;;;;11.10;4.00;;;12.20;99.90;;;;;;5057519;28;20114;-69
2022/06/14 05:15:10;;;;;;;14.15;4.30;;;12.20;99.90;;;;;;5037208;28;20130;-69
2022/06/14 05:17:43;;;;;;;14.73;4.00;;;12.30;99.90;;;;;;5026359;28;20048;-70
2022/06/14 05:20:27;;;;;;;10.43;3.35;;;12.30;99.90;;;;;;5022234;28;20478;-69
2022/06/14 05:23:08;;;;;;;11.88;3.75;;;12.40;99.90;;;;;;5031908;28;20817;-70
2022/06/14 05:26:09;;;;;;;12.30;4.00;;;12.40;99.90;;;;;;5028984;28;20315;-69
2022/06/14 05:29:04;;;;;;;10.10;3.55;;;12.50;99.90;;;;;;5032410;28;20170;-70
2022/06/14 05:31:37;;;;;;;17.23;4.53;;;12.50;99.90;;;;;;5047692;28;20046;-69
2022/06/14 05:34:12;;;;;;;10.90;3.40;;;12.50;99.90;;;;;;5030582;28;20425;-70
2022/06/14 05:36:51;;;;;;;14.18;3.97;;;12.50;99.90;;;;;;5024672;28;20591;-69
2022/06/14 05:39:25;;;;;;;;;;;12.60;99.90;;;;;;5028446;28;20045;-70
2022/06/14 05:42:02;;;;;;;11.77;3.75;;;12.60;99.90;;;;;;5037973;28;19936;-70
2022/06/14 05:44:35;;;;;;;15.82;4.28;;;12.70;99.90;;;;;;5043373;28;20435;-69
2022/06/14 05:47:08;;;;;;;12.88;3.88;;;12.70;99.90;;;;;;5045896;28;20072;-69
2022/06/14 05:49:41;;;;;;;19.67;4.38;;;12.80;99.90;;;;;;5045732;28;20372;-70
2022/06/14 05:52:16;;;;;;;8.63;3.85;;;12.80;99.90;;;;;;5035886;28;20056;-69
2022/06/14 05:55:00;;;;;;;10.35;3.20;;;12.90;99.90;;;;;;5052954;28;20128;-69
2022/06/14 05:57:42;;;;;;;12.52;3.45;;;13.00;99.90;;;;;;5043897;28;20120;-69
2022/06/14 06:00:25;;;;;;;13.73;4.03;;;13.10;99.90;;;;;;5038816;28;20067;-69
2022/06/14 06:03:10;;;;;;;15.68;3.50;;;13.10;99.90;;;;;;5049559;28;20444;-70
2022/06/14 06:05:51;;;;;;;11.32;4.18;;;13.10;99.90;;;;;;5050330;28;20044;-69
2022/06/14 06:08:26;;;;;;;13.65;3.75;;;13.20;99.90;;;;;;5042388;28;20187;-69
2022/06/14 06:11:00;;;;;;;12.90;3.42;;;13.30;99.90;;;;;;5053816;28;20045;-69
2022/06/14 06:13:38;;;;;;;12.48;3.80;;;13.40;99.90;;;;;;5043985;28;20277;-69
2022/06/14 06:16:15;;;;;;;11.07;3.08;;;13.60;99.90;;;;;;5042918;28;20048;-69
2022/06/14 06:18:49;;;;;;;12.90;3.15;;;14.00;99.90;;;;;;5042057;28;20053;-70
2022/06/14 06:21:32;;;;;;;8.65;2.90;;;14.20;99.90;;;;;;5041287;28;20080;-70
2022/06/14 06:24:07;;;;;;;11.75;3.50;;;14.30;99.90;;;;;;5046466;28;20451;-70
2022/06/14 06:26:37;;;;;;;10.23;3.92;;;14.40;99.90;;;;;;5041314;28;20045;-70
2022/06/14 06:29:10;;;;;;;9.95;3.22;;;14.50;99.90;;;;;;5052142;28;20046;-70
2022/06/14 06:31:39;;;;;;;8.90;2.90;;;14.60;99.90;;;;;;5050038;28;20393;-69
2022/06/14 06:34:11;;;;;;;11.88;2.83;;;14.70;99.90;;;;;;5036686;28;20053;-69
2022/06/14 06:36:53;;;;;;;9.10;2.67;;;14.80;99.90;;;;;;5034229;28;20049;-69
2022/06/14 06:39:42;;;;;;;7.72;2.53;;;14.90;99.90;;;;;;5035188;28;20520;-70
2022/06/14 06:42:31;;;;;;;10.53;2.63;;;15.00;99.90;;;;;;5032936;28;20510;-69
2022/06/14 06:45:07;;;;;;;16.00;3.38;;;15.10;99.90;;;;;;5031140;28;20058;-69
2022/06/14 06:47:46;;;;;;;9.70;2.50;;;15.20;99.90;;;;;;5035315;28;20411;-70
2022/06/14 06:50:22;;;;;;;8.77;2.38;;;15.30;99.90;;;;;;5059877;28;20045;-70
2022/06/14 06:53:05;;;;;;;13.63;3.33;;;15.40;99.90;;;;;;5050998;28;20061;-71
2022/06/14 06:55:40;;;;;;;7.53;2.60;;;15.50;99.90;;;;;;5046702;28;20099;-70
2022/06/14 06:58:24;;;;;;;9.50;3.10;;;15.60;99.90;;;;;;5037731;28;20056;-70
2022/06/14 07:00:51;;;;;;;9.23;2.95;;;15.70;99.90;;;;;;5024985;28;20395;-70
2022/06/14 07:03:24;;;;;;;7.20;2.50;;;15.90;99.90;;;;;;5036684;28;20110;-69
2022/06/14 07:05:54;;;;;;;9.25;2.33;;;16.00;99.90;;;;;;5037725;28;20049;-70
2022/06/14 07:08:48;;;;;;;10.10;2.85;;;16.10;99.90;;;;;;5054104;28;20056;-69
2022/06/14 07:11:18;;;;;;;11.80;2.35;;;16.20;99.90;;;;;;5034708;28;20121;-69
2022/06/14 07:14:23;;;;;;;7.03;1.63;;;16.20;99.90;;;;;;5039487;28;20071;-69
2022/06/14 07:17:15;;;;;;;13.90;2.50;;;16.30;99.90;;;;;;5053512;28;20056;-67
2022/06/14 07:19:54;;;;;;;11.15;2.50;;;16.40;99.90;;;;;;5047410;28;20206;-70
2022/06/14 07:22:35;;;;;;;10.50;2.30;;;16.50;99.90;;;;;;5041543;28;20430;-69
2022/06/14 07:25:18;;;;;;;11.60;2.30;;;16.60;99.90;;;;;;5051163;28;20098;-69
2022/06/14 07:28:05;;;;;;;8.93;2.38;;;16.70;99.90;;;;;;5034403;28;20051;-65
2022/06/14 07:30:46;;;;;;;8.00;1.95;;;16.70;99.90;;;;;;5058349;28;20405;-68
2022/06/14 07:33:14;;;;;;;6.70;2.05;;;16.80;99.90;;;;;;5044329;28;20560;-67
2022/06/14 07:35:58;;;;;;;5.60;2.10;;;16.80;99.90;;;;;;5046725;28;20089;-69
2022/06/14 07:38:24;;;;;;;8.98;2.30;;;16.80;99.90;;;;;;5033587;28;20076;-69
2022/06/14 07:40:53;;;;;;;11.43;2.53;;;16.80;99.90;;;;;;5060839;28;20081;-68
2022/06/14 07:43:45;;;;;;;6.40;2.17;;;16.90;99.90;;;;;;5031987;28;20092;-66
2022/06/14 07:46:15;;;;;;;5.63;2.00;;;17.00;99.90;;;;;;5045185;28;20047;-68
2022/06/14 07:48:46;;;;;;;11.48;2.78;;;17.00;99.90;;;;;;5051308;28;20041;-67
2022/06/14 07:51:19;;;;;;;9.98;2.35;;;17.10;99.90;;;;;;5051812;28;20063;-68
2022/06/14 07:53:47;;;;;;;8.75;2.20;;;17.20;99.90;;;;;;5051695;28;20446;-70
2022/06/14 07:56:22;;;;;;;8.30;2.42;;;17.30;99.90;;;;;;5039622;28;20051;-67
2022/06/14 07:59:16;;;;;;;6.30;2.00;;;17.40;99.90;;;;;;5043886;28;20049;-69
2022/06/14 08:02:06;;;;;;;7.70;2.22;;;17.60;99.90;;;;;;5052433;28;20423;-67
2022/06/14 08:04:52;;;;;;;9.93;2.25;;;17.70;99.90;;;;;;5043823;28;20059;-69
2022/06/14 08:07:19;;;;;;;9.00;2.53;;;17.60;99.90;;;;;;5033151;28;20045;-69
2022/06/14 08:10:14;;;;;;;9.98;2.28;;;17.70;99.90;;;;;;5033483;28;20037;-68
2022/06/14 08:12:43;;;;;;;6.10;2.25;;;17.90;99.90;;;;;;5051213;28;20432;-69
2022/06/14 08:15:24;;;;;;;10.13;2.25;;;18.00;99.90;;;;;;5047753;28;20051;-69
2022/06/14 08:18:17;;;;;;;4.07;1.67;;;17.90;99.90;;;;;;5043606;28;20041;-69
2022/06/14 08:20:50;;;;;;;5.55;1.83;;;17.70;99.90;;;;;;5032840;28;20406;-69
2022/06/14 08:23:35;;;;;;;8.18;2.15;;;17.60;99.90;;;;;;5030760;28;20125;-69
2022/06/14 08:26:06;;;;;;;5.75;1.88;;;17.60;99.90;;;;;;5037908;28;20041;-67
2022/06/14 08:28:40;;;;;;;3.47;1.50;;;17.70;99.90;;;;;;5033692;28;20131;-69
2022/06/14 08:31:41;;;;;;;6.03;1.75;;;17.60;99.90;;;;;;5037949;28;20045;-70
2022/06/14 08:34:23;;;;;;;7.95;2.08;;;17.70;99.90;;;;;;5023065;28;20500;-69
2022/06/14 08:36:53;;;;;;;7.65;2.08;;;17.70;99.90;;;;;;5038515;28;20046;-70
2022/06/14 08:39:34;;;;;;;5.82;1.90;;;17.60;99.90;;;;;;5032866;28;20049;-69
2022/06/14 08:42:27;;;;;;;5.80;1.60;;;17.90;99.90;;;;;;5040901;28;20053;-69
2022/06/14 08:44:57;;;;;;;8.43;1.80;;;18.10;99.90;;;;;;5039910;28;20128;-67
2022/06/14 08:47:39;;;;;;;6.45;1.80;;;18.40;99.00;;;;;;5049982;28;20087;-67
2022/06/14 08:50:10;;;;;;;4.68;1.85;;;18.30;99.20;;;;;;5035221;28;20128;-68
2022/06/14 08:52:57;;;;;;;10.15;2.00;;;18.40;99.40;;;;;;5032421;28;20399;-69
2022/06/14 08:55:46;;;;;;;4.63;1.90;;;18.60;98.60;;;;;;5045244;28;20124;-69
2022/06/14 08:58:34;;;;;;;7.10;2.15;;;18.60;99.60;;;;;;5048714;28;20045;-70
2022/06/14 09:01:28;;;;;;;5.38;1.52;;;18.60;99.70;;;;;;5033357;28;20037;-70
2022/06/14 09:04:12;;;;;;;5.50;1.50;;;18.50;99.90;;;;;;5031267;28;20049;-68
2022/06/14 09:06:44;;;;;;;3.90;1.60;;;18.50;99.00;;;;;;5035949;28;20083;-68
2022/06/14 09:09:37;;;;;;;6.57;1.70;;;18.40;98.20;;;;;;5048204;28;20494;-70
2022/06/14 09:12:33;;;;;;;3.97;1.50;;;18.20;98.90;;;;;;5050591;28;20132;-68
2022/06/14 09:15:30;;;;;;;6.10;1.58;;;18.20;98.70;;;;;;5049042;28;20137;-70
2022/06/14 09:18:04;;;;;;;6.00;1.92;;;18.30;99.90;;;;;;5040960;28;20510;-69
2022/06/14 09:20:49;;;;;;;4.63;1.63;;;18.60;98.80;;;;;;5031053;28;20468;-68
2022/06/14 09:23:33;;;;;;;5.30;1.88;;;18.80;99.40;;;;;;5031381;28;20046;-69
2022/06/14 09:26:07;;;;;;;5.72;1.52;;;18.80;98.20;;;;;;5032616;28;20053;-66
2022/06/14 09:28:52;;;;;;;8.30;2.15;;;18.70;98.30;;;;;;5035398;28;20088;-69
2022/06/14 09:31:45;;;;;;;4.57;1.80;;;18.60;99.40;;;;;;5037134;28;20042;-68
2022/06/14 09:34:19;;;;;;;6.75;2.10;;;18.60;98.90;;;;;;5035143;28;20177;-67
2022/06/14 09:37:19;;;;;;;5.05;1.73;;;18.70;97.50;;;;;;5038677;28;20052;-69
2022/06/14 09:40:03;;;;;;;6.78;1.77;;;18.70;98.80;;;;;;5048882;28;20120;-68
2022/06/14 09:42:47;;;;;;;4.63;1.50;;;18.80;96.90;;;;;;5041916;28;20132;-69
2022/06/14 09:45:19;;;;;;;6.00;1.67;;;18.80;98.70;;;;;;5060547;28;20037;-68
2022/06/14 09:48:09;;;;;;;5.57;1.77;;;19.00;98.00;;;;;;5037322;28;20096;-70
2022/06/14 09:50:44;;;;;;;2.83;1.23;;;19.10;98.60;;;;;;5045195;28;20044;-68
2022/06/14 09:53:18;;;;;;;4.13;1.80;;;19.40;97.70;;;;;;5055493;28;20047;-69
2022/06/14 09:55:53;;;;;;;4.65;1.70;;;19.60;96.40;;;;;;5053195;28;20495;-69
2022/06/14 09:58:37;;;;;;;4.28;1.77;;;19.60;97.40;;;;;;5056684;28;20045;-69
2022/06/14 10:01:03;;;;;;;4.45;1.55;;;19.60;97.00;;;;;;5060142;28;20069;-68
2022/06/14 10:03:37;;;;;;;5.70;1.60;;;19.50;96.80;;;;;;5030545;28;20060;-67
2022/06/14 10:06:20;;;;;;;7.32;1.58;;;19.20;96.10;;;;;;5058141;28;20480;-70
2022/06/14 10:09:13;;;;;;;4.47;1.85;;;19.10;96.20;;;;;;5047165;28;20052;-67
2022/06/14 10:11:57;;;;;;;4.90;1.33;;;18.90;97.00;;;;;;5040916;28;20040;-70
2022/06/14 10:15:04;;;;;;;3.67;1.50;;;18.60;98.20;;;;;;5043081;28;20099;-68
2022/06/14 10:18:01;;;;;;;9.77;1.90;;;18.50;97.70;;;;;;5041964;28;20044;-69
2022/06/14 10:20:35;;;;;;;5.93;1.85;;;18.40;98.10;;;;;;5040728;28;20068;-70
2022/06/14 10:23:15;;;;;;;7.03;1.67;;;18.30;99.20;;;;;;5035763;28;20133;-69
2022/06/14 10:29:18;;;;;;;4.60;1.80;;;18.30;98.90;;;;;;5044092;28;20041;-69
2022/06/14 10:32:10;;;;;;;7.38;1.80;;;18.20;99.20;;;;;;5046750;28;20041;-69
2022/06/14 10:34:57;;;;;;;9.57;1.83;;;18.30;99.70;;;;;;5040674;28;20092;-69
2022/06/14 10:37:32;;;;;;;4.40;1.83;;;18.30;99.50;;;;;;5039584;28;20048;-69
2022/06/14 10:40:29;;;;;;;6.25;1.75;;;18.20;99.70;;;;;;5062546;28;20049;-69
2022/06/14 10:43:20;;;;;;;4.35;1.70;;;18.30;98.90;;;;;;5061027;28;20047;-70
2022/06/14 10:45:54;;;;;;;4.82;1.80;;;18.20;99.80;;;;;;5055224;28;20538;-68
2022/06/14 10:48:52;;;;;;;5.55;1.92;;;18.20;98.60;;;;;;5049576;28;20048;-68
2022/06/14 10:51:27;;;;;;;5.40;2.05;;;18.20;98.30;;;;;;5035250;28;20049;-70
2022/06/14 10:54:11;;;;;;;7.30;2.03;;;18.00;99.30;;;;;;5044155;28;20098;-66
2022/06/14 10:56:36;;;;;;;6.22;1.77;;;18.00;99.40;;;;;;5042975;28;20040;-67
2022/06/14 10:59:37;;;;;;;4.35;1.90;;;17.90;99.90;;;;;;5050056;28;20055;-67
2022/06/14 11:02:41;;;;;;;6.65;2.08;;;17.80;99.90;;;;;;5056240;28;20053;-66
2022/06/14 11:05:19;;;;;;;8.63;2.20;;;17.70;99.90;;;;;;5036815;28;20076;-67
2022/06/14 11:08:02;;;;;;;5.60;1.95;;;17.50;99.90;;;;;;5042185;28;20033;-67
2022/06/14 11:10:33;;;;;;;9.27;2.10;;;17.50;99.90;;;;;;5046142;28;20045;-68
2022/06/14 11:13:10;;;;;;;10.55;2.45;;;17.30;99.90;;;;;;5043355;28;20127;-68
2022/06/14 11:15:38;;;;;;;8.40;2.28;;;17.30;99.90;;;;;;5042692;28;20046;-69
2022/06/14 11:18:16;;;;;;;9.32;2.38;;;17.30;99.90;;;;;;5034697;28;20045;-68
2022/06/14 11:21:04;;;;;;;6.15;2.25;;;17.30;99.90;;;;;;5048022;28;20053;-69
2022/06/14 11:23:51;;;;;;;11.35;2.75;;;17.30;99.90;;;;;;5049205;28;20415;-67
2022/06/14 11:26:43;;;;;;;7.78;2.10;;;17.40;99.90;;;;;;5046727;28;20129;-70
2022/06/14 11:29:18;;;;;;;9.95;2.20;;;17.30;99.90;;;;;;5038170;28;20052;-69
2022/06/14 11:32:02;;;;;;;12.55;2.20;;;17.30;99.90;;;;;;5035572;28;20052;-71
2022/06/14 11:35:04;;;;;;;4.47;1.80;;;17.40;99.90;;;;;;5039485;28;20360;-70
2022/06/14 11:37:53;;;;;;;5.38;2.00;;;17.50;99.90;;;;;;5039335;28;20526;-70
2022/06/14 11:40:31;;;;;;;5.85;2.60;;;17.60;99.90;;;;;;5054015;28;20455;-71
2022/06/14 11:43:06;;;;;;;7.65;2.72;;;17.60;99.90;;;;;;5041008;28;20061;-68
2022/06/14 11:46:12;;;;;;;14.23;3.08;;;17.70;99.90;;;;;;5050513;28;20053;-65
2022/06/14 11:48:48;;;;;;;8.07;2.72;;;17.90;99.90;;;;;;5040385;28;20111;-69
2022/06/14 11:51:21;;;;;;;7.22;2.85;;;17.80;99.90;;;;;;5040181;28;20045;-70
2022/06/14 11:54:31;;;;;;;6.43;2.60;;;17.90;99.90;;;;;;5044023;28;20059;-69
2022/06/14 11:57:18;;;;;;;4.65;2.65;;;18.00;99.90;;;;;;5011098;28;20045;-68
2022/06/14 12:00:10;;;;;;;10.27;2.80;;;18.20;99.90;;;;;;5042989;28;20127;-67
2022/06/14 12:02:45;;;;;;;8.88;2.97;;;18.40;99.90;;;;;;5033266;28;20511;-68
2022/06/14 12:05:35;;;;;;;8.38;2.70;;;18.40;99.90;;;;;;5051020;28;20045;-69
2022/06/14 12:08:54;;;;;;;7.78;2.38;;;18.40;99.90;;;;;;5040112;28;20044;-68
2022/06/14 12:11:40;;;;;;;8.55;2.80;;;18.60;99.90;;;;;;5028941;28;20051;-68
2022/06/14 12:14:24;;;;;;;5.80;2.20;;;18.70;99.90;;;;;;5038389;28;20045;-69
2022/06/14 12:17:25;;;;;;;8.75;2.15;;;19.00;99.90;;;;;;5037551;28;20045;-69
2022/06/14 12:20:04;;;;;;;8.70;2.15;;;19.40;99.90;;;;;;5046301;28;20069;-69
2022/06/14 12:22:43;;;;;;;6.10;2.28;;;20.00;99.90;;;;;;5035354;28;20069;-69
2022/06/14 12:28:06;;;;;;;5.15;2.33;;;20.40;98.70;;;;;;5054323;28;20081;-68
2022/06/14 12:30:33;;;;;;;4.93;1.63;;;20.40;97.60;;;;;;5046040;28;20053;-68
2022/06/14 12:33:08;;;;;;;5.72;1.80;;;20.30;96.30;;;;;;5044971;28;20354;-69
2022/06/14 12:35:41;;;;;;;4.63;1.48;;;20.10;97.10;;;;;;5040815;28;20044;-69
2022/06/14 12:38:19;;;;;;;4.93;1.55;;;20.10;97.20;;;;;;5039514;28;20061;-69
2022/06/14 12:40:58;;;;;;;5.35;1.92;;;20.00;97.00;;;;;;5048079;28;20049;-69
2022/06/14 12:43:32;;;;;;;8.80;2.58;;;20.00;96.30;;;;;;5039025;28;20056;-67
2022/06/14 12:46:07;;;;;;;3.42;1.60;;;20.00;95.70;;;;;;5034222;28;20086;-68
2022/06/14 12:48:36;;;;;;;5.80;1.88;;;19.90;95.40;;;;;;5047815;28;20064;-68
2022/06/14 12:51:08;;;;;;;10.57;2.72;;;19.80;96.10;;;;;;5034669;28;20045;-70
2022/06/14 12:53:39;;;;;;;8.10;2.60;;;19.70;96.80;;;;;;5040258;28;20142;-70
2022/06/14 12:56:36;;;;;;;7.22;2.20;;;19.80;96.90;;;;;;5048726;28;20375;-67
2022/06/14 12:59:39;;;;;;;10.15;2.10;;;19.90;96.90;;;;;;5041926;28;20057;-69
2022/06/14 13:02:20;;;;;;;5.97;2.15;;;20.00;96.40;;;;;;5042956;28;20049;-69
2022/06/14 13:04:48;;;;;;;6.30;1.70;;;20.20;96.60;;;;;;5043026;28;20056;-70
2022/06/14 13:07:17;;;;;;;7.13;2.40;;;20.40;96.80;;;;;;5047537;28;20056;-68
2022/06/14 13:10:12;;;;;;;4.97;1.80;;;20.70;97.80;;;;;;5047482;28;20522;-69
2022/06/14 13:13:19;;;;;;;6.82;2.03;;;20.90;96.10;;;;;;5050066;28;20041;-70
2022/06/14 13:15:51;;;;;;;5.80;1.90;;;21.00;97.20;;;;;;5033069;28;20060;-71
2022/06/14 13:18:37;;;;;;;5.03;2.08;;;21.00;96.50;;;;;;5053263;28;20041;-70
2022/06/14 13:21:24;;;;;;;3.40;1.88;;;21.10;95.90;;;;;;5057204;28;20045;-69
2022/06/14 13:23:56;;;;;;;4.07;1.58;;;21.20;96.40;;;;;;5042535;28;20407;-70
2022/06/14 13:26:46;;;;;;;9.30;2.80;;;21.30;96.20;;;;;;5041034;28;20514;-69
2022/06/14 13:29:41;;;;;;;3.55;1.80;;;21.30;96.30;;;;;;5052017;28;20041;-69
2022/06/14 13:32:21;;;;;;;4.10;1.83;;;21.30;93.70;;;;;;5028660;28;20416;-70
2022/06/14 13:35:14;;;;;;;5.68;2.00;;;21.00;94.50;;;;;;5046553;28;20046;-68
2022/06/14 13:37:59;;;;;;;5.57;2.15;;;20.90;94.80;;;;;;5057684;28;20044;-65
2022/06/14 13:40:37;;;;;;;10.00;2.90;;;20.80;95.00;;;;;;5036652;28;20498;-66
2022/06/14 13:43:26;;;;;;;6.35;1.88;;;20.30;95.70;;;;;;5038352;28;20045;-67
2022/06/14 13:46:00;;;;;;;6.38;1.90;;;20.00;96.40;;;;;;5035260;28;20404;-66
2022/06/14 13:48:32;;;;;;;7.88;2.20;;;19.80;96.70;;;;;;5029496;28;20057;-66
2022/06/14 13:51:18;;;;;;;6.95;2.00;;;19.70;96.40;;;;;;5051709;28;20044;-69
2022/06/14 13:54:07;;;;;;;6.43;2.17;;;19.60;97.00;;;;;;5025865;28;20057;-66
2022/06/14 13:57:05;;;;;;;6.10;2.30;;;19.60;97.20;;;;;;5035747;28;20049;-68
2022/06/14 13:59:35;;;;;;;6.32;2.45;;;19.40;97.50;;;;;;5048172;28;20052;-70